createdAt,value
2022-10-20T00:00:35.187Z,0.00
2022-10-20T00:01:35.177Z,0.00
2022-10-20T00:02:35.351Z,0.00
2022-10-20T00:03:35.069Z,0.00
2022-10-20T00:04:35.026Z,0.00
2022-10-20T00:05:34.997Z,0.00
2022-10-20T00:06:34.946Z,0.00
2022-10-20T00:07:34.904Z,0.00
2022-10-20T00:08:34.883Z,0.00
2022-10-20T00:09:34.822Z,0.00
2022-10-20T00:10:34.782Z,0.00
2022-10-20T00:11:34.753Z,0.00
2022-10-20T00:12:35.056Z,0.00
2022-10-20T00:13:34.662Z,0.00
2022-10-20T00:14:34.620Z,0.00
2022-10-20T00:15:34.581Z,0.00
2022-10-20T00:16:34.539Z,0.00
2022-10-20T00:17:34.512Z,0.00
2022-10-20T00:18:34.457Z,0.00
2022-10-20T00:19:34.420Z,0.00
2022-10-20T00:20:34.377Z,0.00
2022-10-20T00:21:34.338Z,0.00
2022-10-20T00:22:34.579Z,0.00
2022-10-20T00:23:34.268Z,0.00
2022-10-20T00:24:34.216Z,0.00
2022-10-20T00:25:34.177Z,0.00
2022-10-20T00:26:34.135Z,0.00
2022-10-20T00:27:34.097Z,0.00
2022-10-20T00:28:34.051Z,0.00
2022-10-20T00:29:34.026Z,0.00
2022-10-20T00:30:33.982Z,0.00
2022-10-20T00:31:33.936Z,0.00
2022-10-20T00:32:34.464Z,0.00
2022-10-20T00:33:33.854Z,0.00
2022-10-20T00:34:33.810Z,0.00
2022-10-20T00:35:33.767Z,0.00
2022-10-20T00:36:33.747Z,0.00
2022-10-20T00:37:33.690Z,0.00
2022-10-20T00:38:33.652Z,0.00
2022-10-20T00:39:33.611Z,0.00
2022-10-20T00:40:33.566Z,0.00
2022-10-20T00:41:33.530Z,0.00
2022-10-20T00:42:33.749Z,0.00
2022-10-20T00:43:33.446Z,0.00
2022-10-20T00:44:33.404Z,0.00
2022-10-20T00:45:33.364Z,0.00
2022-10-20T00:46:33.326Z,0.00
2022-10-20T00:47:33.325Z,0.00
2022-10-20T00:48:33.255Z,0.00
2022-10-20T00:49:33.201Z,0.00
2022-10-20T00:50:33.160Z,0.00
2022-10-20T00:51:33.122Z,0.00
2022-10-20T00:52:33.333Z,0.00
2022-10-20T00:53:33.036Z,0.00
2022-10-20T00:54:33.010Z,0.00
2022-10-20T00:55:32.959Z,0.00
2022-10-20T00:56:32.918Z,0.00
2022-10-20T00:57:33.235Z,0.00
2022-10-20T00:58:32.836Z,0.00
2022-10-20T00:59:32.799Z,0.00
2022-10-20T01:00:32.780Z,0.00
2022-10-20T01:01:32.776Z,0.00
2022-10-20T01:02:32.676Z,0.00
2022-10-20T01:03:32.638Z,0.00
2022-10-20T01:04:32.593Z,0.00
2022-10-20T01:05:32.551Z,0.00
2022-10-20T01:06:32.528Z,0.00
2022-10-20T01:07:32.665Z,0.00
2022-10-20T01:08:32.490Z,0.00
2022-10-20T01:09:32.391Z,0.00
2022-10-20T01:10:32.354Z,0.00
2022-10-20T01:11:32.321Z,0.00
2022-10-20T01:12:32.267Z,0.00
2022-10-20T01:13:32.231Z,0.00
2022-10-20T01:14:32.189Z,0.00
2022-10-20T01:15:32.150Z,0.00
2022-10-20T01:16:32.109Z,0.00
2022-10-20T01:17:32.076Z,0.00
2022-10-20T01:18:32.028Z,0.00
2022-10-20T01:19:31.984Z,0.00
2022-10-20T01:20:31.943Z,0.00
2022-10-20T01:21:31.903Z,0.00
2022-10-20T01:22:31.862Z,0.00
2022-10-20T01:23:31.835Z,0.00
2022-10-20T01:24:31.783Z,0.00
2022-10-20T01:25:31.741Z,0.00
2022-10-20T01:26:31.700Z,0.00
2022-10-20T01:27:31.680Z,0.00
2022-10-20T01:28:31.618Z,0.00
2022-10-20T01:29:31.579Z,0.00
2022-10-20T01:30:31.539Z,0.00
2022-10-20T01:31:31.499Z,0.00
2022-10-20T01:32:31.460Z,0.00
2022-10-20T01:33:31.432Z,0.00
2022-10-20T01:34:31.376Z,0.00
2022-10-20T01:35:31.337Z,0.00
2022-10-20T01:36:31.296Z,0.00
2022-10-20T01:37:34.333Z,0.00
2022-10-20T01:38:31.226Z,0.00
2022-10-20T01:39:31.175Z,0.00
2022-10-20T01:40:31.138Z,0.00
2022-10-20T01:41:31.095Z,0.00
2022-10-20T01:42:31.083Z,0.00
2022-10-20T01:43:31.013Z,0.00
2022-10-20T01:44:30.981Z,0.00
2022-10-20T01:45:30.934Z,0.00
2022-10-20T01:46:30.888Z,0.00
2022-10-20T01:47:30.850Z,0.00
2022-10-20T01:48:30.807Z,0.00
2022-10-20T01:49:30.769Z,0.00
2022-10-20T01:50:30.740Z,0.00
2022-10-20T01:51:30.704Z,0.00
2022-10-20T01:52:30.646Z,0.00
2022-10-20T01:53:30.608Z,0.00
2022-10-20T01:54:30.567Z,0.00
2022-10-20T01:55:30.524Z,0.00
2022-10-20T01:56:30.497Z,0.00
2022-10-20T01:57:30.443Z,0.00
2022-10-20T01:58:30.407Z,0.00
2022-10-20T01:59:30.364Z,0.00
2022-10-20T02:00:30.325Z,0.00
2022-10-20T02:01:30.329Z,0.00
2022-10-20T02:02:30.251Z,0.00
2022-10-20T02:03:30.200Z,0.00
2022-10-20T02:04:30.161Z,0.00
2022-10-20T02:05:30.121Z,0.00
2022-10-20T02:06:30.075Z,0.00
2022-10-20T02:07:30.041Z,0.00
2022-10-20T02:08:30.074Z,0.00
2022-10-20T02:09:29.956Z,0.00
2022-10-20T02:10:29.918Z,0.00
2022-10-20T02:11:29.875Z,0.00
2022-10-20T02:12:29.845Z,0.00
2022-10-20T02:13:29.796Z,0.00
2022-10-20T02:14:29.755Z,0.00
2022-10-20T02:15:29.727Z,0.00
2022-10-20T02:16:29.674Z,0.00
2022-10-20T02:17:29.633Z,0.00
2022-10-20T02:18:29.595Z,0.00
2022-10-20T02:19:29.552Z,0.00
2022-10-20T02:20:29.512Z,0.00
2022-10-20T02:21:29.482Z,0.00
2022-10-20T02:22:29.431Z,0.00
2022-10-20T02:23:31.574Z,0.00
2022-10-20T02:24:29.348Z,0.00
2022-10-20T02:25:29.309Z,0.00
2022-10-20T02:26:29.272Z,0.00
2022-10-20T02:27:29.243Z,0.00
2022-10-20T02:28:29.187Z,0.00
2022-10-20T02:29:29.146Z,0.00
2022-10-20T02:30:29.107Z,0.00
2022-10-20T02:31:29.065Z,0.00
2022-10-20T02:32:29.037Z,0.00
2022-10-20T02:33:28.985Z,0.00
2022-10-20T02:34:28.945Z,0.00
2022-10-20T02:35:28.903Z,0.00
2022-10-20T02:36:28.861Z,0.00
2022-10-20T02:37:28.824Z,0.00
2022-10-20T02:38:28.796Z,0.00
2022-10-20T02:39:28.742Z,0.00
2022-10-20T02:40:28.700Z,0.00
2022-10-20T02:41:28.660Z,0.00
2022-10-20T02:42:28.617Z,0.00
2022-10-20T02:43:28.588Z,0.00
2022-10-20T02:44:28.539Z,0.00
2022-10-20T02:45:28.498Z,0.00
2022-10-20T02:46:28.462Z,0.00
2022-10-20T02:47:28.417Z,0.00
2022-10-20T02:48:28.394Z,0.00
2022-10-20T02:49:36.258Z,0.00
2022-10-20T02:50:28.306Z,0.00
2022-10-20T02:51:28.256Z,0.00
2022-10-20T02:52:28.215Z,0.00
2022-10-20T02:53:28.176Z,0.00
2022-10-20T02:54:28.134Z,0.00
2022-10-20T02:55:28.105Z,0.00
2022-10-20T02:56:30.311Z,0.00
2022-10-20T02:57:28.014Z,0.00
2022-10-20T02:58:27.974Z,0.00
2022-10-20T02:59:27.938Z,0.00
2022-10-20T03:00:27.890Z,0.00
2022-10-20T03:01:27.922Z,0.00
2022-10-20T03:02:27.809Z,0.00
2022-10-20T03:03:27.770Z,0.00
2022-10-20T03:04:27.731Z,0.00
2022-10-20T03:05:27.685Z,0.00
2022-10-20T03:06:27.650Z,0.00
2022-10-20T03:07:27.616Z,0.00
2022-10-20T03:08:27.597Z,0.00
2022-10-20T03:09:27.526Z,0.00
2022-10-20T03:10:27.496Z,0.00
2022-10-20T03:11:27.443Z,0.00
2022-10-20T03:12:30.110Z,0.00
2022-10-20T03:13:27.363Z,0.00
2022-10-20T03:14:27.326Z,0.00
2022-10-20T03:15:27.280Z,0.00
2022-10-20T03:16:27.256Z,0.00
2022-10-20T03:17:27.213Z,0.00
2022-10-20T03:18:27.163Z,0.00
2022-10-20T03:19:27.121Z,0.00
2022-10-20T03:20:27.080Z,0.00
2022-10-20T03:21:27.068Z,0.00
2022-10-20T03:22:27.065Z,0.00
2022-10-20T03:23:26.962Z,0.00
2022-10-20T03:24:26.918Z,0.00
2022-10-20T03:25:26.875Z,0.00
2022-10-20T03:26:26.879Z,0.00
2022-10-20T03:27:26.812Z,0.00
2022-10-20T03:28:26.757Z,0.00
2022-10-20T03:29:26.714Z,0.00
2022-10-20T03:30:26.674Z,0.00
2022-10-20T03:31:26.636Z,0.00
2022-10-20T03:32:26.612Z,0.00
2022-10-20T03:33:26.553Z,0.00
2022-10-20T03:34:26.514Z,0.00
2022-10-20T03:35:26.472Z,0.00
2022-10-20T03:36:26.432Z,0.00
2022-10-20T03:37:26.389Z,0.00
2022-10-20T03:38:26.368Z,0.00
2022-10-20T03:39:26.310Z,0.00
2022-10-20T03:40:26.271Z,0.00
2022-10-20T03:41:26.234Z,0.00
2022-10-20T03:42:26.187Z,0.00
2022-10-20T03:43:26.147Z,0.00
2022-10-20T03:44:26.118Z,0.00
2022-10-20T03:45:26.072Z,0.00
2022-10-20T03:46:26.040Z,0.00
2022-10-20T03:47:25.986Z,0.00
2022-10-20T03:48:25.946Z,0.00
2022-10-20T03:49:25.954Z,0.00
2022-10-20T03:50:25.867Z,0.00
2022-10-20T03:51:25.841Z,0.00
2022-10-20T03:52:25.793Z,0.00
2022-10-20T03:53:25.745Z,0.00
2022-10-20T03:54:25.704Z,0.00
2022-10-20T03:55:25.662Z,0.00
2022-10-20T03:56:25.622Z,0.00
2022-10-20T03:57:25.587Z,0.00
2022-10-20T03:58:25.554Z,0.00
2022-10-20T03:59:28.051Z,0.00
2022-10-20T04:00:25.463Z,0.00
2022-10-20T04:01:25.455Z,0.00
2022-10-20T04:02:25.382Z,0.00
2022-10-20T04:03:25.339Z,0.00
2022-10-20T04:04:25.314Z,0.00
2022-10-20T04:05:25.259Z,0.00
2022-10-20T04:06:25.220Z,0.00
2022-10-20T04:07:25.183Z,0.00
2022-10-20T04:08:25.239Z,0.00
2022-10-20T04:09:25.111Z,0.00
2022-10-20T04:10:25.070Z,0.00
2022-10-20T04:11:25.016Z,0.00
2022-10-20T04:12:24.981Z,0.00
2022-10-20T04:13:24.938Z,0.00
2022-10-20T04:14:24.896Z,0.00
2022-10-20T04:15:24.854Z,0.00
2022-10-20T04:16:24.828Z,0.00
2022-10-20T04:17:24.774Z,0.00
2022-10-20T04:18:24.735Z,0.00
2022-10-20T04:19:24.693Z,0.00
2022-10-20T04:20:24.654Z,0.00
2022-10-20T04:21:24.621Z,0.00
2022-10-20T04:22:24.574Z,0.00
2022-10-20T04:23:24.541Z,0.00
2022-10-20T04:24:24.493Z,0.00
2022-10-20T04:25:24.453Z,0.00
2022-10-20T04:26:24.412Z,0.00
2022-10-20T04:27:24.371Z,0.00
2022-10-20T04:28:24.337Z,0.00
2022-10-20T04:29:24.298Z,0.00
2022-10-20T04:30:24.255Z,0.00
2022-10-20T04:31:24.210Z,0.00
2022-10-20T04:32:24.171Z,0.00
2022-10-20T04:33:24.128Z,0.00
2022-10-20T04:34:24.098Z,0.00
2022-10-20T04:35:24.057Z,0.00
2022-10-20T04:36:24.017Z,0.00
2022-10-20T04:37:23.966Z,0.00
2022-10-20T04:38:23.929Z,0.00
2022-10-20T04:39:23.888Z,0.00
2022-10-20T04:40:23.858Z,0.00
2022-10-20T04:41:23.805Z,0.00
2022-10-20T04:42:23.770Z,0.00
2022-10-20T04:43:23.727Z,0.00
2022-10-20T04:44:23.683Z,0.00
2022-10-20T04:45:23.644Z,0.00
2022-10-20T04:46:23.616Z,0.00
2022-10-20T04:47:23.563Z,0.00
2022-10-20T04:48:23.529Z,0.00
2022-10-20T04:49:23.482Z,0.00
2022-10-20T04:50:23.451Z,0.00
2022-10-20T04:51:23.403Z,0.00
2022-10-20T04:52:23.373Z,0.00
2022-10-20T04:53:23.333Z,0.00
2022-10-20T04:54:23.295Z,0.00
2022-10-20T04:55:23.240Z,0.00
2022-10-20T04:56:23.214Z,0.00
2022-10-20T04:57:23.158Z,0.00
2022-10-20T04:58:23.119Z,0.00
2022-10-20T04:59:23.080Z,0.00
2022-10-20T05:00:23.057Z,0.00
2022-10-20T05:01:23.030Z,0.00
2022-10-20T05:02:22.959Z,0.00
2022-10-20T05:03:22.918Z,0.00
2022-10-20T05:04:22.881Z,0.00
2022-10-20T05:05:22.863Z,0.00
2022-10-20T05:06:22.797Z,0.00
2022-10-20T05:07:22.758Z,0.00
2022-10-20T05:08:22.718Z,0.00
2022-10-20T05:09:22.675Z,0.00
2022-10-20T05:10:22.635Z,0.00
2022-10-20T05:11:22.607Z,0.00
2022-10-20T05:12:22.559Z,0.00
2022-10-20T05:13:22.529Z,0.00
2022-10-20T05:14:22.474Z,0.00
2022-10-20T05:15:22.435Z,0.00
2022-10-20T05:16:22.394Z,0.00
2022-10-20T05:17:22.352Z,0.00
2022-10-20T05:18:22.317Z,0.00
2022-10-20T05:19:22.285Z,0.00
2022-10-20T05:20:22.233Z,0.00
2022-10-20T05:21:22.197Z,0.00
2022-10-20T05:22:22.158Z,0.00
2022-10-20T05:23:22.111Z,0.00
2022-10-20T05:24:22.873Z,0.00
2022-10-20T05:25:35.937Z,0.00
2022-10-20T05:26:21.992Z,0.00
2022-10-20T05:27:21.949Z,0.00
2022-10-20T05:28:21.910Z,0.00
2022-10-20T05:29:21.893Z,4.00
2022-10-20T05:30:21.831Z,4.00
2022-10-20T05:31:21.802Z,0.00
2022-10-20T05:32:21.753Z,0.00
2022-10-20T05:33:21.710Z,0.00
2022-10-20T05:34:21.672Z,4.00
2022-10-20T05:35:21.630Z,4.00
2022-10-20T05:36:21.902Z,0.00
2022-10-20T05:37:24.248Z,4.00
2022-10-20T05:38:21.509Z,4.00
2022-10-20T05:39:21.467Z,4.00
2022-10-20T05:40:21.427Z,8.00
2022-10-20T05:41:21.429Z,8.00
2022-10-20T05:42:21.351Z,8.00
2022-10-20T05:43:21.305Z,8.00
2022-10-20T05:44:21.271Z,12.00
2022-10-20T05:45:21.227Z,16.00
2022-10-20T05:46:21.186Z,16.00
2022-10-20T05:47:21.155Z,20.00
2022-10-20T05:48:21.108Z,24.00
2022-10-20T05:49:21.065Z,28.00
2022-10-20T05:50:21.036Z,32.00
2022-10-20T05:51:20.990Z,40.00
2022-10-20T05:52:20.958Z,44.00
2022-10-20T05:53:20.907Z,52.00
2022-10-20T05:54:20.869Z,56.00
2022-10-20T05:55:20.822Z,64.00
2022-10-20T05:56:20.786Z,72.00
2022-10-20T05:57:20.748Z,80.00
2022-10-20T05:58:22.998Z,88.00
2022-10-20T05:59:20.661Z,100.00
2022-10-20T06:00:20.623Z,108.00
2022-10-20T06:01:20.683Z,120.00
2022-10-20T06:02:20.548Z,128.00
2022-10-20T06:03:23.665Z,140.00
2022-10-20T06:04:20.477Z,152.00
2022-10-20T06:05:20.421Z,168.00
2022-10-20T06:06:20.390Z,180.00
2022-10-20T06:07:20.343Z,200.00
2022-10-20T06:08:20.304Z,224.00
2022-10-20T06:09:20.258Z,248.00
2022-10-20T06:10:20.233Z,276.00
2022-10-20T06:11:20.181Z,304.00
2022-10-20T06:12:20.139Z,332.00
2022-10-20T06:13:20.100Z,364.00
2022-10-20T06:14:20.059Z,396.00
2022-10-20T06:15:20.031Z,428.00
2022-10-20T06:16:19.981Z,460.00
2022-10-20T06:17:19.937Z,496.00
2022-10-20T06:18:19.896Z,528.00
2022-10-20T06:19:19.856Z,564.00
2022-10-20T06:20:19.817Z,604.00
2022-10-20T06:21:19.792Z,648.00
2022-10-20T06:22:19.743Z,688.00
2022-10-20T06:23:19.697Z,732.00
2022-10-20T06:24:19.661Z,780.00
2022-10-20T06:25:19.618Z,820.00
2022-10-20T06:26:19.585Z,868.00
2022-10-20T06:27:19.569Z,916.00
2022-10-20T06:28:19.497Z,964.00
2022-10-20T06:29:19.469Z,1016.00
2022-10-20T06:30:19.413Z,1072.00
2022-10-20T06:31:19.375Z,1120.00
2022-10-20T06:32:19.348Z,1168.00
2022-10-20T06:33:19.294Z,1212.00
2022-10-20T06:34:19.253Z,1248.00
2022-10-20T06:35:19.216Z,1280.00
2022-10-20T06:36:19.186Z,1316.00
2022-10-20T06:37:19.148Z,1340.00
2022-10-20T06:38:19.093Z,1364.00
2022-10-20T06:39:19.055Z,1388.00
2022-10-20T06:40:19.014Z,1412.00
2022-10-20T06:41:18.976Z,1432.00
2022-10-20T06:42:18.934Z,1456.00
2022-10-20T06:43:18.906Z,1488.00
2022-10-20T06:44:18.854Z,1520.00
2022-10-20T06:45:18.811Z,1552.00
2022-10-20T06:46:18.780Z,1588.00
2022-10-20T06:47:18.736Z,1628.00
2022-10-20T06:48:18.692Z,1672.00
2022-10-20T06:49:18.667Z,1720.00
2022-10-20T06:50:18.614Z,1772.00
2022-10-20T06:51:18.573Z,1828.00
2022-10-20T06:52:18.532Z,1884.00
2022-10-20T06:53:18.492Z,1936.00
2022-10-20T06:54:18.447Z,2000.00
2022-10-20T06:55:18.479Z,2064.00
2022-10-20T06:56:18.373Z,2124.00
2022-10-20T06:57:18.339Z,2200.00
2022-10-20T06:58:18.301Z,2276.00
2022-10-20T06:59:18.251Z,2356.00
2022-10-20T07:00:18.261Z,2436.00
2022-10-20T07:01:18.240Z,2520.00
2022-10-20T07:02:18.131Z,2608.00
2022-10-20T07:03:18.094Z,2692.00
2022-10-20T07:04:18.064Z,2780.00
2022-10-20T07:05:18.011Z,2856.00
2022-10-20T07:06:17.969Z,2936.00
2022-10-20T07:07:17.934Z,3004.00
2022-10-20T07:08:17.893Z,3072.00
2022-10-20T07:09:17.865Z,3136.00
2022-10-20T07:10:17.814Z,3196.00
2022-10-20T07:11:17.771Z,3260.00
2022-10-20T07:12:17.731Z,3328.00
2022-10-20T07:13:17.694Z,3400.00
2022-10-20T07:14:17.664Z,3480.00
2022-10-20T07:15:17.630Z,3564.00
2022-10-20T07:16:17.572Z,3656.00
2022-10-20T07:17:17.556Z,3752.00
2022-10-20T07:18:17.492Z,3864.00
2022-10-20T07:19:17.466Z,3976.00
2022-10-20T07:20:17.427Z,4104.00
2022-10-20T07:21:17.375Z,4236.00
2022-10-20T07:22:17.349Z,4380.00
2022-10-20T07:25:24.978Z,4764.00
2022-10-20T07:25:49.299Z,4928.00
2022-10-20T07:26:49.270Z,5120.00
2022-10-20T07:27:49.219Z,5328.00
2022-10-20T07:28:54.642Z,5448.00
2022-10-20T07:29:49.140Z,5588.00
2022-10-20T07:30:49.101Z,5748.00
2022-10-20T07:31:49.062Z,5800.00
2022-10-20T07:32:49.032Z,5928.00
2022-10-20T07:34:06.843Z,6064.00
2022-10-20T07:34:48.952Z,5992.00
2022-10-20T07:35:48.903Z,6060.00
2022-10-20T07:36:48.860Z,6120.00
2022-10-20T07:37:48.826Z,6148.00
2022-10-20T07:38:48.786Z,6200.00
2022-10-20T07:39:48.742Z,6412.00
2022-10-20T07:40:48.718Z,6832.00
2022-10-20T07:41:48.825Z,7168.00
2022-10-20T07:42:48.624Z,7244.00
2022-10-20T07:43:48.590Z,7164.00
2022-10-20T07:44:48.547Z,7216.00
2022-10-20T07:45:48.508Z,6936.00
2022-10-20T07:46:48.484Z,6520.00
2022-10-20T07:47:48.434Z,6192.00
2022-10-20T07:48:48.389Z,6088.00
2022-10-20T07:49:48.354Z,6028.00
2022-10-20T07:50:48.316Z,5980.00
2022-10-20T07:51:48.289Z,5952.00
2022-10-20T07:52:48.234Z,5952.00
2022-10-20T07:53:48.205Z,5968.00
2022-10-20T07:54:48.154Z,6012.00
2022-10-20T07:55:48.119Z,6076.00
2022-10-20T07:56:48.073Z,6168.00
2022-10-20T07:57:48.048Z,6292.00
2022-10-20T07:58:48.002Z,6392.00
2022-10-20T07:59:47.970Z,6552.00
2022-10-20T08:00:47.919Z,6736.00
2022-10-20T08:01:47.923Z,6936.00
2022-10-20T08:02:47.843Z,7160.00
2022-10-20T08:03:47.817Z,7404.00
2022-10-20T08:04:47.764Z,7564.00
2022-10-20T08:05:47.725Z,7692.00
2022-10-20T08:06:47.686Z,7744.00
2022-10-20T08:07:47.647Z,7716.00
2022-10-20T08:08:47.627Z,7684.00
2022-10-20T08:09:47.581Z,7632.00
2022-10-20T08:10:47.531Z,7532.00
2022-10-20T08:11:51.381Z,7500.00
2022-10-20T08:12:47.452Z,7516.00
2022-10-20T08:13:47.413Z,7588.00
2022-10-20T08:14:47.374Z,7696.00
2022-10-20T08:15:48.430Z,7840.00
2022-10-20T08:16:54.931Z,8008.00
2022-10-20T08:17:47.262Z,8180.00
2022-10-20T08:18:53.930Z,8352.00
2022-10-20T08:19:51.431Z,8564.00
2022-10-20T08:20:47.170Z,8844.00
2022-10-20T08:21:47.113Z,9240.00
2022-10-20T08:22:47.061Z,9492.00
2022-10-20T08:23:47.024Z,9844.00
2022-10-20T08:24:46.989Z,10096.00
2022-10-20T08:25:46.947Z,9820.00
2022-10-20T08:26:46.907Z,9720.00
2022-10-20T08:27:46.912Z,9420.00
2022-10-20T08:28:46.828Z,9240.00
2022-10-20T08:29:55.032Z,9152.00
2022-10-20T08:30:46.755Z,8928.00
2022-10-20T08:31:46.717Z,8764.00
2022-10-20T08:32:46.676Z,8768.00
2022-10-20T08:33:51.403Z,8780.00
2022-10-20T08:34:46.595Z,8784.00
2022-10-20T08:35:46.566Z,8700.00
2022-10-20T08:36:46.521Z,8344.00
2022-10-20T08:37:46.493Z,8268.00
2022-10-20T08:38:46.443Z,8264.00
2022-10-20T08:39:46.442Z,8600.00
2022-10-20T08:40:46.365Z,9028.00
2022-10-20T08:42:07.026Z,9956.00
2022-10-20T08:42:46.289Z,8980.00
2022-10-20T08:43:46.250Z,11120.00
2022-10-20T08:44:46.212Z,10712.00
2022-10-20T08:45:46.187Z,9492.00
2022-10-20T08:46:46.134Z,9596.00
2022-10-20T08:47:46.100Z,10180.00
2022-10-20T08:48:46.057Z,9596.00
2022-10-20T08:49:55.535Z,10924.00
2022-10-20T08:50:46.001Z,12004.00
2022-10-20T08:51:45.962Z,11096.00
2022-10-20T08:52:45.907Z,11684.00
2022-10-20T08:53:45.865Z,10296.00
2022-10-20T08:54:45.828Z,9900.00
2022-10-20T08:55:45.803Z,9556.00
2022-10-20T08:56:45.761Z,9916.00
2022-10-20T08:57:45.715Z,9880.00
2022-10-20T08:58:45.678Z,9144.00
2022-10-20T08:59:45.638Z,9400.00
2022-10-20T09:00:45.597Z,8536.00
2022-10-20T09:01:45.657Z,9028.00
2022-10-20T09:02:45.520Z,8940.00
2022-10-20T09:03:45.490Z,8732.00
2022-10-20T09:04:45.449Z,8876.00
2022-10-20T09:05:45.492Z,9132.00
2022-10-20T09:06:45.369Z,9332.00
2022-10-20T09:07:45.345Z,9380.00
2022-10-20T09:08:45.334Z,9292.00
2022-10-20T09:09:45.256Z,9144.00
2022-10-20T09:10:45.217Z,8896.00
2022-10-20T09:11:45.200Z,8568.00
2022-10-20T09:12:45.139Z,8220.00
2022-10-20T09:13:45.207Z,7928.00
2022-10-20T09:14:45.065Z,7668.00
2022-10-20T09:15:45.024Z,7396.00
2022-10-20T09:16:59.339Z,7136.00
2022-10-20T09:17:44.945Z,6904.00
2022-10-20T09:18:44.909Z,6672.00
2022-10-20T09:19:44.885Z,6384.00
2022-10-20T09:20:44.832Z,6072.00
2022-10-20T09:21:44.796Z,5800.00
2022-10-20T09:22:44.755Z,5512.00
2022-10-20T09:23:44.764Z,5176.00
2022-10-20T09:24:44.682Z,4804.00
2022-10-20T09:25:44.661Z,4536.00
2022-10-20T09:26:58.218Z,4512.00
2022-10-20T09:27:44.563Z,4764.00
2022-10-20T09:29:08.616Z,5192.00
2022-10-20T09:29:44.500Z,5576.00
2022-10-20T09:30:44.451Z,5956.00
2022-10-20T09:31:44.410Z,7516.00
2022-10-20T09:32:56.322Z,7212.00
2022-10-20T09:33:44.335Z,7836.00
2022-10-20T09:34:44.294Z,7872.00
2022-10-20T09:35:44.267Z,8172.00
2022-10-20T09:36:44.215Z,8392.00
2022-10-20T09:37:44.183Z,8500.00
2022-10-20T09:38:44.139Z,8584.00
2022-10-20T09:39:44.101Z,8552.00
2022-10-20T09:40:44.061Z,8452.00
2022-10-20T09:41:44.032Z,8384.00
2022-10-20T09:42:43.983Z,8440.00
2022-10-20T09:43:43.947Z,8448.00
2022-10-20T09:44:43.907Z,8304.00
2022-10-20T09:45:43.868Z,8200.00
2022-10-20T09:46:43.854Z,8172.00
2022-10-20T09:47:43.794Z,8088.00
2022-10-20T09:48:43.762Z,7924.00
2022-10-20T09:49:43.714Z,7784.00
2022-10-20T09:50:43.677Z,7740.00
2022-10-20T09:51:43.688Z,7976.00
2022-10-20T09:52:43.598Z,8956.00
2022-10-20T09:53:43.577Z,8996.00
2022-10-20T09:54:43.527Z,9376.00
2022-10-20T09:55:43.484Z,9708.00
2022-10-20T09:56:43.450Z,9744.00
2022-10-20T09:57:43.407Z,9112.00
2022-10-20T09:58:43.368Z,8136.00
2022-10-20T09:59:43.341Z,7132.00
2022-10-20T10:00:43.338Z,6396.00
2022-10-20T10:01:43.255Z,5996.00
2022-10-20T10:02:43.221Z,5964.00
2022-10-20T10:03:43.179Z,6360.00
2022-10-20T10:04:43.138Z,7024.00
2022-10-20T10:05:43.101Z,7916.00
2022-10-20T10:06:43.061Z,8748.00
2022-10-20T10:07:43.035Z,9464.00
2022-10-20T10:08:43.028Z,10004.00
2022-10-20T10:09:42.949Z,10264.00
2022-10-20T10:10:42.907Z,10208.00
2022-10-20T10:11:42.871Z,9808.00
2022-10-20T10:12:42.830Z,9252.00
2022-10-20T10:13:42.813Z,8808.00
2022-10-20T10:14:42.753Z,8664.00
2022-10-20T10:15:42.715Z,8864.00
2022-10-20T10:16:42.675Z,8960.00
2022-10-20T10:17:42.652Z,8528.00
2022-10-20T10:18:46.853Z,7668.00
2022-10-20T10:19:42.565Z,6692.00
2022-10-20T10:20:42.523Z,5900.00
2022-10-20T10:21:42.495Z,5552.00
2022-10-20T10:22:42.445Z,5784.00
2022-10-20T10:23:42.419Z,6596.00
2022-10-20T10:24:42.368Z,7968.00
2022-10-20T10:25:42.357Z,10676.00
2022-10-20T10:26:42.292Z,12432.00
2022-10-20T10:27:42.255Z,13744.00
2022-10-20T10:28:42.216Z,15004.00
2022-10-20T10:29:42.189Z,16112.00
2022-10-20T10:30:44.768Z,16960.00
2022-10-20T10:31:42.128Z,16540.00
2022-10-20T10:32:42.062Z,16500.00
2022-10-20T10:33:42.021Z,16304.00
2022-10-20T10:34:41.985Z,16532.00
2022-10-20T10:35:41.948Z,17184.00
2022-10-20T10:36:41.906Z,17824.00
2022-10-20T10:37:42.580Z,18464.00
2022-10-20T10:38:41.832Z,19200.00
2022-10-20T10:39:41.796Z,19552.00
2022-10-20T10:40:41.759Z,18816.00
2022-10-20T10:41:41.725Z,18336.00
2022-10-20T10:42:41.693Z,17728.00
2022-10-20T10:43:44.912Z,17120.00
2022-10-20T10:44:41.610Z,15460.00
2022-10-20T10:45:41.570Z,14464.00
2022-10-20T10:46:41.531Z,13744.00
2022-10-20T10:47:41.840Z,13108.00
2022-10-20T10:48:41.464Z,12872.00
2022-10-20T10:49:41.421Z,12964.00
2022-10-20T10:50:41.386Z,12648.00
2022-10-20T10:51:41.348Z,11972.00
2022-10-20T10:52:41.308Z,11356.00
2022-10-20T10:53:41.283Z,10872.00
2022-10-20T10:54:41.336Z,10364.00
2022-10-20T10:55:48.853Z,10160.00
2022-10-20T10:56:41.187Z,10352.00
2022-10-20T10:57:41.123Z,11004.00
2022-10-20T10:58:41.085Z,11672.00
2022-10-20T10:59:41.063Z,12048.00
2022-10-20T11:00:41.050Z,12228.00
2022-10-20T11:01:40.973Z,12076.00
2022-10-20T11:02:40.933Z,11288.00
2022-10-20T11:03:40.900Z,10276.00
2022-10-20T11:04:40.864Z,9356.00
2022-10-20T11:05:40.837Z,8880.00
2022-10-20T11:06:40.785Z,9012.00
2022-10-20T11:07:40.748Z,9172.00
2022-10-20T11:08:40.760Z,9136.00
2022-10-20T11:09:40.672Z,8876.00
2022-10-20T11:10:40.646Z,8560.00
2022-10-20T11:11:40.600Z,8348.00
2022-10-20T11:12:40.563Z,8068.00
2022-10-20T11:13:40.520Z,7676.00
2022-10-20T11:14:40.482Z,7204.00
2022-10-20T11:15:40.443Z,6912.00
2022-10-20T11:16:40.416Z,6928.00
2022-10-20T11:17:40.371Z,7124.00
2022-10-20T11:18:40.334Z,7476.00
2022-10-20T11:19:40.298Z,7768.00
2022-10-20T11:20:40.253Z,7848.00
2022-10-20T11:21:40.225Z,7672.00
2022-10-20T11:22:40.176Z,7424.00
2022-10-20T11:23:40.140Z,7200.00
2022-10-20T11:24:40.112Z,6876.00
2022-10-20T11:25:40.059Z,6512.00
2022-10-20T11:26:40.024Z,6176.00
2022-10-20T11:27:40.156Z,5984.00
2022-10-20T11:28:39.946Z,5884.00
2022-10-20T11:29:39.916Z,5796.00
2022-10-20T11:30:39.869Z,5684.00
2022-10-20T11:31:39.830Z,5480.00
2022-10-20T11:32:39.801Z,5232.00
2022-10-20T11:33:41.455Z,5032.00
2022-10-20T11:34:39.712Z,4892.00
2022-10-20T11:35:39.677Z,4832.00
2022-10-20T11:36:39.633Z,4744.00
2022-10-20T11:37:39.675Z,4840.00
2022-10-20T11:38:39.555Z,4928.00
2022-10-20T11:39:39.517Z,4804.00
2022-10-20T11:40:39.484Z,4620.00
2022-10-20T11:41:39.439Z,4704.00
2022-10-20T11:42:39.556Z,4640.00
2022-10-20T11:43:39.392Z,4564.00
2022-10-20T11:44:39.322Z,4604.00
2022-10-20T11:45:39.280Z,4392.00
2022-10-20T11:46:39.243Z,4012.00
2022-10-20T11:47:39.207Z,3732.00
2022-10-20T11:48:39.164Z,3416.00
2022-10-20T11:49:39.136Z,3272.00
2022-10-20T11:50:39.086Z,3404.00
2022-10-20T11:51:39.146Z,3772.00
2022-10-20T11:52:39.243Z,3844.00
2022-10-20T11:53:38.967Z,4052.00
2022-10-20T11:54:38.928Z,4724.00
2022-10-20T11:55:38.896Z,5236.00
2022-10-20T11:56:38.853Z,5400.00
2022-10-20T11:57:38.808Z,5364.00
2022-10-20T11:58:38.770Z,5472.00
2022-10-20T11:59:38.740Z,5412.00
2022-10-20T12:00:38.700Z,5128.00
2022-10-20T12:01:38.682Z,5128.00
2022-10-20T12:02:38.902Z,5068.00
2022-10-20T12:03:38.574Z,4812.00
2022-10-20T12:04:38.534Z,4712.00
2022-10-20T12:05:38.492Z,4732.00
2022-10-20T12:06:38.467Z,4920.00
2022-10-20T12:07:38.414Z,5332.00
2022-10-20T12:08:38.427Z,5524.00
2022-10-20T12:09:38.332Z,5192.00
2022-10-20T12:10:38.310Z,4844.00
2022-10-20T12:11:38.254Z,4844.00
2022-10-20T12:12:38.658Z,4976.00
2022-10-20T12:13:38.184Z,4924.00
2022-10-20T12:14:38.135Z,4988.00
2022-10-20T12:15:38.097Z,5072.00
2022-10-20T12:16:38.057Z,4876.00
2022-10-20T12:17:38.017Z,4824.00
2022-10-20T12:18:37.991Z,4716.00
2022-10-20T12:19:37.936Z,4620.00
2022-10-20T12:20:37.898Z,4532.00
2022-10-20T12:21:37.861Z,4316.00
2022-10-20T12:22:38.155Z,3936.00
2022-10-20T12:23:37.781Z,3320.00
2022-10-20T12:24:37.794Z,2620.00
2022-10-20T12:25:37.699Z,2164.00
2022-10-20T12:26:42.364Z,2292.00
2022-10-20T12:27:37.750Z,2776.00
2022-10-20T12:29:37.538Z,3880.00
2022-10-20T12:30:37.515Z,4308.00
2022-10-20T12:31:37.465Z,4600.00
2022-10-20T12:32:37.753Z,4852.00
2022-10-20T12:33:37.378Z,5068.00
2022-10-20T12:34:37.341Z,5196.00
2022-10-20T12:35:37.300Z,5324.00
2022-10-20T12:36:37.275Z,5552.00
2022-10-20T12:37:37.406Z,5820.00
2022-10-20T12:38:37.183Z,6116.00
2022-10-20T12:39:37.142Z,6364.00